sensor_id;sensor_type;location;lat;lon;timestamp;P1;durP1;ratioP1;P2;durP2;ratioP2
1282;SDS011;634;48.810;9.148;2022-08-19T00:01:31;13.83;;;11.47;;
1282;SDS011;634;48.810;9.148;2022-08-19T00:04:06;15.77;;;12.43;;
1282;SDS011;634;48.810;9.148;2022-08-19T00:06:41;12.60;;;11.17;;
1282;SDS011;634;48.810;9.148;2022-08-19T00:09:13;14.10;;;12.60;;
1282;SDS011;634;48.810;9.148;2022-08-19T00:11:45;13.37;;;11.80;;
1282;SDS011;634;48.810;9.148;2022-08-19T00:14:15;13.20;;;11.23;;
1282;SDS011;634;48.810;9.148;2022-08-19T00:16:46;12.27;;;10.97;;
1282;SDS011;634;48.810;9.148;2022-08-19T00:19:20;14.00;;;10.87;;
1282;SDS011;634;48.810;9.148;2022-08-19T00:21:51;14.23;;;11.83;;
1282;SDS011;634;48.810;9.148;2022-08-19T00:24:21;14.27;;;11.73;;
1282;SDS011;634;48.810;9.148;2022-08-19T00:26:52;13.80;;;11.23;;
1282;SDS011;634;48.810;9.148;2022-08-19T00:29:22;14.20;;;12.27;;
1282;SDS011;634;48.810;9.148;2022-08-19T00:31:53;15.87;;;12.60;;
1282;SDS011;634;48.810;9.148;2022-08-19T00:34:26;15.07;;;12.50;;
1282;SDS011;634;48.810;9.148;2022-08-19T00:36:57;13.73;;;11.90;;
1282;SDS011;634;48.810;9.148;2022-08-19T00:39:27;13.93;;;12.10;;
1282;SDS011;634;48.810;9.148;2022-08-19T00:41:56;15.17;;;11.67;;
1282;SDS011;634;48.810;9.148;2022-08-19T00:44:26;13.63;;;11.70;;
1282;SDS011;634;48.810;9.148;2022-08-19T00:47:00;13.23;;;11.83;;
1282;SDS011;634;48.810;9.148;2022-08-19T00:49:33;15.17;;;11.90;;
1282;SDS011;634;48.810;9.148;2022-08-19T00:52:06;19.00;;;12.10;;
1282;SDS011;634;48.810;9.148;2022-08-19T00:54:38;19.37;;;13.37;;
1282;SDS011;634;48.810;9.148;2022-08-19T00:57:09;13.30;;;11.77;;
1282;SDS011;634;48.810;9.148;2022-08-19T00:59:46;13.23;;;11.73;;
1282;SDS011;634;48.810;9.148;2022-08-19T01:02:20;15.07;;;12.07;;
1282;SDS011;634;48.810;9.148;2022-08-19T01:04:52;13.87;;;12.37;;
1282;SDS011;634;48.810;9.148;2022-08-19T01:07:24;14.70;;;11.73;;
1282;SDS011;634;48.810;9.148;2022-08-19T01:09:54;12.53;;;10.00;;
1282;SDS011;634;48.810;9.148;2022-08-19T01:12:23;13.40;;;11.53;;
1282;SDS011;634;48.810;9.148;2022-08-19T01:14:52;16.30;;;12.37;;
1282;SDS011;634;48.810;9.148;2022-08-19T01:17:23;16.07;;;13.50;;
1282;SDS011;634;48.810;9.148;2022-08-19T01:19:55;13.93;;;11.57;;
1282;SDS011;634;48.810;9.148;2022-08-19T01:22:29;13.47;;;11.20;;
1282;SDS011;634;48.810;9.148;2022-08-19T01:25:01;16.17;;;13.53;;
1282;SDS011;634;48.810;9.148;2022-08-19T01:27:36;17.90;;;12.17;;
1282;SDS011;634;48.810;9.148;2022-08-19T01:30:08;17.10;;;12.40;;
1282;SDS011;634;48.810;9.148;2022-08-19T01:32:40;14.77;;;11.73;;
1282;SDS011;634;48.810;9.148;2022-08-19T01:35:09;15.57;;;13.23;;
1282;SDS011;634;48.810;9.148;2022-08-19T01:37:46;13.50;;;11.00;;
1282;SDS011;634;48.810;9.148;2022-08-19T01:40:19;11.93;;;10.67;;
1282;SDS011;634;48.810;9.148;2022-08-19T01:42:52;14.83;;;12.33;;
1282;SDS011;634;48.810;9.148;2022-08-19T01:45:23;13.37;;;11.87;;
1282;SDS011;634;48.810;9.148;2022-08-19T01:47:54;16.90;;;13.07;;
1282;SDS011;634;48.810;9.148;2022-08-19T01:50:23;15.90;;;13.03;;
1282;SDS011;634;48.810;9.148;2022-08-19T01:52:56;15.00;;;12.20;;
1282;SDS011;634;48.810;9.148;2022-08-19T01:55:25;16.80;;;13.10;;
1282;SDS011;634;48.810;9.148;2022-08-19T01:57:55;14.37;;;12.87;;
1282;SDS011;634;48.810;9.148;2022-08-19T02:00:29;16.03;;;12.93;;
1282;SDS011;634;48.810;9.148;2022-08-19T02:03:00;15.23;;;12.67;;
1282;SDS011;634;48.810;9.148;2022-08-19T02:05:29;16.73;;;13.80;;
1282;SDS011;634;48.810;9.148;2022-08-19T02:08:04;16.53;;;13.93;;
1282;SDS011;634;48.810;9.148;2022-08-19T02:10:37;15.97;;;13.00;;
1282;SDS011;634;48.810;9.148;2022-08-19T02:13:08;17.00;;;14.90;;
1282;SDS011;634;48.810;9.148;2022-08-19T02:15:39;18.10;;;13.73;;
1282;SDS011;634;48.810;9.148;2022-08-19T02:18:08;15.57;;;12.87;;
1282;SDS011;634;48.810;9.148;2022-08-19T02:20:39;16.23;;;13.40;;
1282;SDS011;634;48.810;9.148;2022-08-19T02:23:13;16.10;;;13.53;;
1282;SDS011;634;48.810;9.148;2022-08-19T02:25:43;19.13;;;15.20;;
1282;SDS011;634;48.810;9.148;2022-08-19T02:28:14;18.67;;;14.50;;
1282;SDS011;634;48.810;9.148;2022-08-19T02:30:44;17.73;;;14.70;;
1282;SDS011;634;48.810;9.148;2022-08-19T02:33:16;19.83;;;15.00;;
1282;SDS011;634;48.810;9.148;2022-08-19T02:35:48;16.30;;;13.80;;
1282;SDS011;634;48.810;9.148;2022-08-19T02:38:20;19.10;;;14.00;;
1282;SDS011;634;48.810;9.148;2022-08-19T02:40:55;18.40;;;14.03;;
1282;SDS011;634;48.810;9.148;2022-08-19T02:43:26;17.73;;;14.37;;
1282;SDS011;634;48.810;9.148;2022-08-19T02:46:00;14.93;;;12.20;;
1282;SDS011;634;48.810;9.148;2022-08-19T02:48:30;17.30;;;13.87;;
1282;SDS011;634;48.810;9.148;2022-08-19T02:51:02;19.23;;;15.10;;
1282;SDS011;634;48.810;9.148;2022-08-19T02:53:34;19.07;;;14.80;;
1282;SDS011;634;48.810;9.148;2022-08-19T02:56:05;21.63;;;16.17;;
1282;SDS011;634;48.810;9.148;2022-08-19T02:58:35;21.50;;;15.10;;
1282;SDS011;634;48.810;9.148;2022-08-19T03:01:05;20.00;;;15.47;;
1282;SDS011;634;48.810;9.148;2022-08-19T03:03:36;20.37;;;15.13;;
1282;SDS011;634;48.810;9.148;2022-08-19T03:06:06;20.00;;;14.40;;
1282;SDS011;634;48.810;9.148;2022-08-19T03:08:41;20.43;;;15.30;;
1282;SDS011;634;48.810;9.148;2022-08-19T03:11:13;20.23;;;16.23;;
1282;SDS011;634;48.810;9.148;2022-08-19T03:13:43;19.87;;;16.10;;
1282;SDS011;634;48.810;9.148;2022-08-19T03:16:15;20.47;;;17.63;;
1282;SDS011;634;48.810;9.148;2022-08-19T03:18:45;20.50;;;16.03;;
1282;SDS011;634;48.810;9.148;2022-08-19T03:21:15;22.83;;;17.07;;
1282;SDS011;634;48.810;9.148;2022-08-19T03:23:47;18.30;;;13.30;;
1282;SDS011;634;48.810;9.148;2022-08-19T03:26:17;22.33;;;16.23;;
1282;SDS011;634;48.810;9.148;2022-08-19T03:28:46;20.90;;;16.70;;
1282;SDS011;634;48.810;9.148;2022-08-19T03:31:17;19.47;;;14.73;;
1282;SDS011;634;48.810;9.148;2022-08-19T03:33:49;23.03;;;17.83;;
1282;SDS011;634;48.810;9.148;2022-08-19T03:36:19;21.67;;;16.37;;
1282;SDS011;634;48.810;9.148;2022-08-19T03:38:54;20.53;;;16.80;;
1282;SDS011;634;48.810;9.148;2022-08-19T03:41:28;19.90;;;16.63;;
1282;SDS011;634;48.810;9.148;2022-08-19T03:43:59;21.40;;;17.57;;
1282;SDS011;634;48.810;9.148;2022-08-19T03:46:30;24.07;;;17.87;;
1282;SDS011;634;48.810;9.148;2022-08-19T03:49:01;21.97;;;17.93;;
1282;SDS011;634;48.810;9.148;2022-08-19T03:51:33;21.47;;;16.87;;
1282;SDS011;634;48.810;9.148;2022-08-19T03:54:09;21.17;;;16.60;;
1282;SDS011;634;48.810;9.148;2022-08-19T03:56:42;26.80;;;19.87;;
1282;SDS011;634;48.810;9.148;2022-08-19T03:59:15;24.43;;;18.70;;
1282;SDS011;634;48.810;9.148;2022-08-19T04:01:46;22.33;;;17.53;;
1282;SDS011;634;48.810;9.148;2022-08-19T04:04:15;21.83;;;16.43;;
1282;SDS011;634;48.810;9.148;2022-08-19T04:06:45;23.43;;;18.50;;
1282;SDS011;634;48.810;9.148;2022-08-19T04:09:22;20.90;;;17.07;;
1282;SDS011;634;48.810;9.148;2022-08-19T04:11:53;26.60;;;18.50;;
1282;SDS011;634;48.810;9.148;2022-08-19T04:14:25;19.07;;;16.50;;
1282;SDS011;634;48.810;9.148;2022-08-19T04:16:56;23.53;;;18.13;;
1282;SDS011;634;48.810;9.148;2022-08-19T04:19:26;22.70;;;17.93;;
1282;SDS011;634;48.810;9.148;2022-08-19T04:21:57;23.63;;;18.90;;
1282;SDS011;634;48.810;9.148;2022-08-19T04:24:29;20.77;;;16.73;;
1282;SDS011;634;48.810;9.148;2022-08-19T04:26:59;27.23;;;19.70;;
1282;SDS011;634;48.810;9.148;2022-08-19T04:29:30;25.63;;;19.80;;
1282;SDS011;634;48.810;9.148;2022-08-19T04:32:02;24.20;;;19.30;;
1282;SDS011;634;48.810;9.148;2022-08-19T04:34:31;23.40;;;16.60;;
1282;SDS011;634;48.810;9.148;2022-08-19T04:37:05;21.67;;;17.37;;
1282;SDS011;634;48.810;9.148;2022-08-19T04:39:41;23.40;;;18.67;;
1282;SDS011;634;48.810;9.148;2022-08-19T04:42:23;25.80;;;20.43;;
1282;SDS011;634;48.810;9.148;2022-08-19T04:45:12;28.60;;;21.70;;
1282;SDS011;634;48.810;9.148;2022-08-19T04:47:43;28.23;;;20.13;;
1282;SDS011;634;48.810;9.148;2022-08-19T04:50:15;25.53;;;20.30;;
1282;SDS011;634;48.810;9.148;2022-08-19T04:52:45;27.17;;;20.50;;
1282;SDS011;634;48.810;9.148;2022-08-19T04:55:17;24.87;;;20.00;;
1282;SDS011;634;48.810;9.148;2022-08-19T04:57:46;25.80;;;21.03;;
1282;SDS011;634;48.810;9.148;2022-08-19T05:00:17;25.13;;;19.17;;
1282;SDS011;634;48.810;9.148;2022-08-19T05:02:46;21.23;;;16.43;;
1282;SDS011;634;48.810;9.148;2022-08-19T05:05:18;23.47;;;16.97;;
1282;SDS011;634;48.810;9.148;2022-08-19T05:07:50;24.50;;;19.93;;
1282;SDS011;634;48.810;9.148;2022-08-19T05:10:26;25.40;;;19.97;;
1282;SDS011;634;48.810;9.148;2022-08-19T05:12:56;22.73;;;19.90;;
1282;SDS011;634;48.810;9.148;2022-08-19T05:15:26;20.30;;;16.97;;
1282;SDS011;634;48.810;9.148;2022-08-19T05:17:57;23.50;;;19.53;;
1282;SDS011;634;48.810;9.148;2022-08-19T05:20:48;29.93;;;23.70;;
1282;SDS011;634;48.810;9.148;2022-08-19T05:23:30;24.43;;;18.80;;
1282;SDS011;634;48.810;9.148;2022-08-19T05:26:05;24.70;;;19.50;;
1282;SDS011;634;48.810;9.148;2022-08-19T05:28:36;24.20;;;19.30;;
1282;SDS011;634;48.810;9.148;2022-08-19T05:31:05;21.73;;;18.10;;
1282;SDS011;634;48.810;9.148;2022-08-19T05:33:37;24.07;;;18.30;;
1282;SDS011;634;48.810;9.148;2022-08-19T05:36:08;21.77;;;18.97;;
1282;SDS011;634;48.810;9.148;2022-08-19T05:38:37;24.03;;;19.63;;
1282;SDS011;634;48.810;9.148;2022-08-19T05:41:14;25.00;;;19.30;;
1282;SDS011;634;48.810;9.148;2022-08-19T05:43:44;23.97;;;18.53;;
1282;SDS011;634;48.810;9.148;2022-08-19T05:46:16;29.50;;;21.20;;
1282;SDS011;634;48.810;9.148;2022-08-19T05:48:50;24.30;;;19.73;;
1282;SDS011;634;48.810;9.148;2022-08-19T05:51:22;22.63;;;18.60;;
1282;SDS011;634;48.810;9.148;2022-08-19T05:53:51;24.67;;;20.80;;
1282;SDS011;634;48.810;9.148;2022-08-19T05:56:23;24.80;;;18.93;;
1282;SDS011;634;48.810;9.148;2022-08-19T05:58:53;21.70;;;16.67;;
1282;SDS011;634;48.810;9.148;2022-08-19T06:01:23;22.37;;;18.77;;
1282;SDS011;634;48.810;9.148;2022-08-19T06:03:53;20.17;;;17.27;;
1282;SDS011;634;48.810;9.148;2022-08-19T06:06:26;22.00;;;17.40;;
1282;SDS011;634;48.810;9.148;2022-08-19T06:08:55;22.50;;;17.90;;
1282;SDS011;634;48.810;9.148;2022-08-19T06:11:31;18.93;;;15.80;;
1282;SDS011;634;48.810;9.148;2022-08-19T06:14:04;23.20;;;19.17;;
1282;SDS011;634;48.810;9.148;2022-08-19T06:16:36;22.57;;;18.70;;
1282;SDS011;634;48.810;9.148;2022-08-19T06:19:07;25.93;;;19.87;;
1282;SDS011;634;48.810;9.148;2022-08-19T06:21:38;24.30;;;19.67;;
1282;SDS011;634;48.810;9.148;2022-08-19T06:24:10;28.83;;;19.13;;
1282;SDS011;634;48.810;9.148;2022-08-19T06:26:44;23.57;;;18.40;;
1282;SDS011;634;48.810;9.148;2022-08-19T06:29:15;29.00;;;18.23;;
1282;SDS011;634;48.810;9.148;2022-08-19T06:31:50;21.77;;;17.10;;
1282;SDS011;634;48.810;9.148;2022-08-19T06:34:22;23.83;;;19.80;;
1282;SDS011;634;48.810;9.148;2022-08-19T06:36:56;20.10;;;15.73;;
1282;SDS011;634;48.810;9.148;2022-08-19T06:39:28;25.93;;;19.37;;
1282;SDS011;634;48.810;9.148;2022-08-19T06:42:02;26.23;;;20.00;;
1282;SDS011;634;48.810;9.148;2022-08-19T06:44:37;22.37;;;19.07;;
1282;SDS011;634;48.810;9.148;2022-08-19T06:47:11;22.67;;;19.10;;
1282;SDS011;634;48.810;9.148;2022-08-19T06:49:42;20.67;;;17.73;;
1282;SDS011;634;48.810;9.148;2022-08-19T06:52:12;26.40;;;20.20;;
1282;SDS011;634;48.810;9.148;2022-08-19T06:54:42;25.50;;;20.10;;
1282;SDS011;634;48.810;9.148;2022-08-19T06:57:14;27.60;;;20.37;;
1282;SDS011;634;48.810;9.148;2022-08-19T06:59:43;21.27;;;18.27;;
1282;SDS011;634;48.810;9.148;2022-08-19T07:02:15;21.97;;;19.57;;
1282;SDS011;634;48.810;9.148;2022-08-19T07:04:45;22.30;;;17.93;;
1282;SDS011;634;48.810;9.148;2022-08-19T07:07:14;21.57;;;17.90;;
1282;SDS011;634;48.810;9.148;2022-08-19T07:09:44;23.37;;;18.87;;
1282;SDS011;634;48.810;9.148;2022-08-19T07:12:17;26.27;;;19.63;;
1282;SDS011;634;48.810;9.148;2022-08-19T07:14:47;25.77;;;19.80;;
1282;SDS011;634;48.810;9.148;2022-08-19T07:17:16;21.97;;;17.10;;
1282;SDS011;634;48.810;9.148;2022-08-19T07:19:45;26.33;;;19.60;;
1282;SDS011;634;48.810;9.148;2022-08-19T07:22:17;19.53;;;16.37;;
1282;SDS011;634;48.810;9.148;2022-08-19T07:24:48;25.37;;;17.90;;
1282;SDS011;634;48.810;9.148;2022-08-19T07:27:21;24.37;;;18.80;;
1282;SDS011;634;48.810;9.148;2022-08-19T07:29:50;22.73;;;18.20;;
1282;SDS011;634;48.810;9.148;2022-08-19T07:32:21;19.27;;;16.37;;
1282;SDS011;634;48.810;9.148;2022-08-19T07:34:52;25.10;;;18.60;;
1282;SDS011;634;48.810;9.148;2022-08-19T07:37:21;19.57;;;17.47;;
1282;SDS011;634;48.810;9.148;2022-08-19T07:39:52;18.60;;;16.43;;
1282;SDS011;634;48.810;9.148;2022-08-19T07:42:24;21.97;;;17.70;;
1282;SDS011;634;48.810;9.148;2022-08-19T07:44:55;19.80;;;16.07;;
1282;SDS011;634;48.810;9.148;2022-08-19T07:47:27;24.80;;;18.30;;
1282;SDS011;634;48.810;9.148;2022-08-19T07:49:56;24.10;;;18.20;;
1282;SDS011;634;48.810;9.148;2022-08-19T07:52:28;22.63;;;18.20;;
1282;SDS011;634;48.810;9.148;2022-08-19T07:54:57;20.40;;;17.80;;
1282;SDS011;634;48.810;9.148;2022-08-19T07:57:35;20.70;;;15.93;;
1282;SDS011;634;48.810;9.148;2022-08-19T08:00:05;22.13;;;16.67;;
1282;SDS011;634;48.810;9.148;2022-08-19T08:02:38;24.53;;;16.20;;
1282;SDS011;634;48.810;9.148;2022-08-19T08:05:08;19.93;;;17.13;;
1282;SDS011;634;48.810;9.148;2022-08-19T08:07:50;20.77;;;17.00;;
1282;SDS011;634;48.810;9.148;2022-08-19T08:10:32;22.30;;;17.53;;
1282;SDS011;634;48.810;9.148;2022-08-19T08:13:04;22.00;;;17.90;;
1282;SDS011;634;48.810;9.148;2022-08-19T08:15:34;20.60;;;17.40;;
1282;SDS011;634;48.810;9.148;2022-08-19T08:18:05;24.57;;;19.57;;
1282;SDS011;634;48.810;9.148;2022-08-19T08:20:35;20.70;;;17.57;;
1282;SDS011;634;48.810;9.148;2022-08-19T08:23:07;19.20;;;16.50;;
1282;SDS011;634;48.810;9.148;2022-08-19T08:25:49;20.13;;;15.90;;
1282;SDS011;634;48.810;9.148;2022-08-19T08:28:24;22.10;;;16.60;;
1282;SDS011;634;48.810;9.148;2022-08-19T08:30:56;22.70;;;17.30;;
1282;SDS011;634;48.810;9.148;2022-08-19T08:33:27;21.30;;;17.27;;
1282;SDS011;634;48.810;9.148;2022-08-19T08:35:57;22.30;;;17.27;;
1282;SDS011;634;48.810;9.148;2022-08-19T08:38:27;24.40;;;18.37;;
1282;SDS011;634;48.810;9.148;2022-08-19T08:40:58;27.47;;;19.03;;
1282;SDS011;634;48.810;9.148;2022-08-19T08:43:35;21.80;;;17.97;;
1282;SDS011;634;48.810;9.148;2022-08-19T08:46:09;22.23;;;17.70;;
1282;SDS011;634;48.810;9.148;2022-08-19T08:48:44;21.20;;;17.63;;
1282;SDS011;634;48.810;9.148;2022-08-19T08:51:22;22.13;;;18.27;;
1282;SDS011;634;48.810;9.148;2022-08-19T08:53:54;24.87;;;17.90;;
1282;SDS011;634;48.810;9.148;2022-08-19T08:56:27;19.90;;;16.60;;
1282;SDS011;634;48.810;9.148;2022-08-19T08:59:01;21.43;;;18.00;;
1282;SDS011;634;48.810;9.148;2022-08-19T09:01:35;22.17;;;18.07;;
1282;SDS011;634;48.810;9.148;2022-08-19T09:04:05;26.43;;;18.80;;
1282;SDS011;634;48.810;9.148;2022-08-19T09:06:37;22.90;;;17.97;;
1282;SDS011;634;48.810;9.148;2022-08-19T09:09:13;20.27;;;17.30;;
1282;SDS011;634;48.810;9.148;2022-08-19T09:11:55;19.90;;;16.57;;
1282;SDS011;634;48.810;9.148;2022-08-19T09:14:37;20.63;;;17.17;;
1282;SDS011;634;48.810;9.148;2022-08-19T09:17:12;23.30;;;16.60;;
1282;SDS011;634;48.810;9.148;2022-08-19T09:19:51;19.37;;;16.57;;
1282;SDS011;634;48.810;9.148;2022-08-19T09:22:22;21.10;;;17.37;;
1282;SDS011;634;48.810;9.148;2022-08-19T09:24:53;20.97;;;18.00;;
1282;SDS011;634;48.810;9.148;2022-08-19T09:27:23;18.80;;;15.97;;
1282;SDS011;634;48.810;9.148;2022-08-19T09:29:57;21.27;;;15.77;;
1282;SDS011;634;48.810;9.148;2022-08-19T09:32:27;17.57;;;14.90;;
1282;SDS011;634;48.810;9.148;2022-08-19T09:34:56;21.53;;;17.23;;
1282;SDS011;634;48.810;9.148;2022-08-19T09:37:26;18.77;;;15.83;;
1282;SDS011;634;48.810;9.148;2022-08-19T09:39:56;21.23;;;14.03;;
1282;SDS011;634;48.810;9.148;2022-08-19T09:42:25;19.33;;;15.07;;
1282;SDS011;634;48.810;9.148;2022-08-19T09:44:58;17.20;;;15.00;;
1282;SDS011;634;48.810;9.148;2022-08-19T09:47:27;18.73;;;14.63;;
1282;SDS011;634;48.810;9.148;2022-08-19T09:49:58;17.10;;;14.40;;
1282;SDS011;634;48.810;9.148;2022-08-19T09:52:27;18.30;;;13.97;;
1282;SDS011;634;48.810;9.148;2022-08-19T09:54:59;21.43;;;15.43;;
1282;SDS011;634;48.810;9.148;2022-08-19T09:57:32;20.30;;;14.77;;
1282;SDS011;634;48.810;9.148;2022-08-19T10:00:05;15.70;;;13.63;;
1282;SDS011;634;48.810;9.148;2022-08-19T10:02:36;15.50;;;13.70;;
1282;SDS011;634;48.810;9.148;2022-08-19T10:05:08;17.20;;;13.60;;
1282;SDS011;634;48.810;9.148;2022-08-19T10:07:50;19.50;;;13.80;;
1282;SDS011;634;48.810;9.148;2022-08-19T10:10:20;16.20;;;13.50;;
1282;SDS011;634;48.810;9.148;2022-08-19T10:12:50;15.63;;;13.07;;
1282;SDS011;634;48.810;9.148;2022-08-19T10:15:23;19.27;;;11.50;;
1282;SDS011;634;48.810;9.148;2022-08-19T10:17:53;14.33;;;12.30;;
1282;SDS011;634;48.810;9.148;2022-08-19T10:20:22;18.10;;;13.27;;
1282;SDS011;634;48.810;9.148;2022-08-19T10:22:51;14.00;;;12.27;;
1282;SDS011;634;48.810;9.148;2022-08-19T10:25:21;19.80;;;12.40;;
1282;SDS011;634;48.810;9.148;2022-08-19T10:27:52;14.80;;;12.57;;
1282;SDS011;634;48.810;9.148;2022-08-19T10:30:24;12.63;;;11.30;;
1282;SDS011;634;48.810;9.148;2022-08-19T10:32:54;15.70;;;12.10;;
1282;SDS011;634;48.810;9.148;2022-08-19T10:35:23;15.63;;;13.37;;
1282;SDS011;634;48.810;9.148;2022-08-19T10:37:55;15.67;;;12.30;;
1282;SDS011;634;48.810;9.148;2022-08-19T10:40:25;16.47;;;11.40;;
1282;SDS011;634;48.810;9.148;2022-08-19T10:42:55;14.30;;;12.33;;
1282;SDS011;634;48.810;9.148;2022-08-19T10:45:27;14.80;;;12.10;;
1282;SDS011;634;48.810;9.148;2022-08-19T10:47:57;13.40;;;11.60;;
1282;SDS011;634;48.810;9.148;2022-08-19T10:50:26;12.33;;;10.93;;
1282;SDS011;634;48.810;9.148;2022-08-19T10:53:08;18.40;;;12.80;;
1282;SDS011;634;48.810;9.148;2022-08-19T10:55:38;13.00;;;11.70;;
1282;SDS011;634;48.810;9.148;2022-08-19T10:58:20;13.43;;;11.53;;
1282;SDS011;634;48.810;9.148;2022-08-19T11:00:57;12.00;;;10.80;;
1282;SDS011;634;48.810;9.148;2022-08-19T11:03:27;14.43;;;10.97;;
1282;SDS011;634;48.810;9.148;2022-08-19T11:05:57;12.07;;;10.67;;
1282;SDS011;634;48.810;9.148;2022-08-19T11:08:27;13.37;;;11.27;;
1282;SDS011;634;48.810;9.148;2022-08-19T11:10:58;14.63;;;10.17;;
1282;SDS011;634;48.810;9.148;2022-08-19T11:13:30;13.00;;;10.43;;
1282;SDS011;634;48.810;9.148;2022-08-19T11:16:07;14.13;;;10.57;;
1282;SDS011;634;48.810;9.148;2022-08-19T11:18:40;16.00;;;11.27;;
1282;SDS011;634;48.810;9.148;2022-08-19T11:21:12;10.67;;;9.57;;
1282;SDS011;634;48.810;9.148;2022-08-19T11:23:47;12.93;;;9.23;;
1282;SDS011;634;48.810;9.148;2022-08-19T11:26:21;12.30;;;9.60;;
1282;SDS011;634;48.810;9.148;2022-08-19T11:28:51;11.90;;;10.30;;
1282;SDS011;634;48.810;9.148;2022-08-19T11:31:25;12.10;;;10.00;;
1282;SDS011;634;48.810;9.148;2022-08-19T11:33:56;10.20;;;9.13;;
1282;SDS011;634;48.810;9.148;2022-08-19T11:36:26;12.40;;;9.27;;
1282;SDS011;634;48.810;9.148;2022-08-19T11:38:57;11.03;;;9.27;;
1282;SDS011;634;48.810;9.148;2022-08-19T11:41:27;11.30;;;9.00;;
1282;SDS011;634;48.810;9.148;2022-08-19T11:43:57;9.20;;;8.30;;
1282;SDS011;634;48.810;9.148;2022-08-19T11:46:31;12.90;;;9.27;;
1282;SDS011;634;48.810;9.148;2022-08-19T11:49:01;10.90;;;8.10;;
1282;SDS011;634;48.810;9.148;2022-08-19T11:51:33;10.90;;;8.50;;
1282;SDS011;634;48.810;9.148;2022-08-19T11:54:04;9.10;;;8.27;;
1282;SDS011;634;48.810;9.148;2022-08-19T11:56:36;9.57;;;7.93;;
1282;SDS011;634;48.810;9.148;2022-08-19T11:59:06;12.10;;;9.57;;
1282;SDS011;634;48.810;9.148;2022-08-19T12:01:39;11.30;;;9.10;;
1282;SDS011;634;48.810;9.148;2022-08-19T12:04:09;9.93;;;8.93;;
1282;SDS011;634;48.810;9.148;2022-08-19T12:06:41;11.03;;;9.23;;
1282;SDS011;634;48.810;9.148;2022-08-19T12:09:11;11.07;;;8.70;;
1282;SDS011;634;48.810;9.148;2022-08-19T12:11:41;9.23;;;8.30;;
1282;SDS011;634;48.810;9.148;2022-08-19T12:14:12;10.37;;;8.97;;
1282;SDS011;634;48.810;9.148;2022-08-19T12:16:45;9.17;;;8.10;;
1282;SDS011;634;48.810;9.148;2022-08-19T12:19:15;12.17;;;8.30;;
1282;SDS011;634;48.810;9.148;2022-08-19T12:21:48;10.47;;;9.30;;
1282;SDS011;634;48.810;9.148;2022-08-19T12:24:18;11.13;;;9.67;;
1282;SDS011;634;48.810;9.148;2022-08-19T12:26:49;13.67;;;11.50;;
1282;SDS011;634;48.810;9.148;2022-08-19T12:29:21;13.30;;;11.20;;
1282;SDS011;634;48.810;9.148;2022-08-19T12:31:58;11.57;;;10.40;;
1282;SDS011;634;48.810;9.148;2022-08-19T12:34:28;12.97;;;11.47;;
1282;SDS011;634;48.810;9.148;2022-08-19T12:36:59;15.13;;;12.43;;
1282;SDS011;634;48.810;9.148;2022-08-19T12:39:33;12.23;;;10.80;;
1282;SDS011;634;48.810;9.148;2022-08-19T12:42:04;14.53;;;13.13;;
1282;SDS011;634;48.810;9.148;2022-08-19T12:44:35;15.93;;;13.00;;
1282;SDS011;634;48.810;9.148;2022-08-19T12:47:08;18.40;;;13.90;;
1282;SDS011;634;48.810;9.148;2022-08-19T12:49:39;17.60;;;13.80;;
1282;SDS011;634;48.810;9.148;2022-08-19T12:52:10;15.33;;;13.43;;
1282;SDS011;634;48.810;9.148;2022-08-19T12:54:41;18.60;;;14.83;;
1282;SDS011;634;48.810;9.148;2022-08-19T12:57:12;20.23;;;14.03;;
1282;SDS011;634;48.810;9.148;2022-08-19T12:59:41;17.93;;;13.77;;
1282;SDS011;634;48.810;9.148;2022-08-19T13:02:13;16.80;;;14.87;;
1282;SDS011;634;48.810;9.148;2022-08-19T13:04:43;21.13;;;15.47;;
1282;SDS011;634;48.810;9.148;2022-08-19T13:07:12;19.30;;;14.90;;
1282;SDS011;634;48.810;9.148;2022-08-19T13:09:42;19.60;;;15.10;;
1282;SDS011;634;48.810;9.148;2022-08-19T13:12:11;24.90;;;17.80;;
1282;SDS011;634;48.810;9.148;2022-08-19T13:14:41;21.53;;;16.77;;
1282;SDS011;634;48.810;9.148;2022-08-19T13:17:18;23.63;;;17.00;;
1282;SDS011;634;48.810;9.148;2022-08-19T13:19:51;23.67;;;17.30;;
1282;SDS011;634;48.810;9.148;2022-08-19T13:22:22;25.13;;;19.40;;
1282;SDS011;634;48.810;9.148;2022-08-19T13:24:52;26.17;;;19.27;;
1282;SDS011;634;48.810;9.148;2022-08-19T13:27:22;25.40;;;19.00;;
1282;SDS011;634;48.810;9.148;2022-08-19T13:29:54;25.40;;;20.50;;
1282;SDS011;634;48.810;9.148;2022-08-19T13:32:39;29.23;;;20.83;;
1282;SDS011;634;48.810;9.148;2022-08-19T13:35:20;26.60;;;21.17;;
1282;SDS011;634;48.810;9.148;2022-08-19T13:37:50;29.37;;;21.27;;
1282;SDS011;634;48.810;9.148;2022-08-19T13:40:20;28.93;;;21.47;;
1282;SDS011;634;48.810;9.148;2022-08-19T13:42:53;33.50;;;20.73;;
1282;SDS011;634;48.810;9.148;2022-08-19T13:45:24;28.30;;;22.70;;
1282;SDS011;634;48.810;9.148;2022-08-19T13:47:58;31.83;;;23.13;;
1282;SDS011;634;48.810;9.148;2022-08-19T13:50:33;31.53;;;24.40;;
1282;SDS011;634;48.810;9.148;2022-08-19T13:53:04;32.27;;;24.90;;
1282;SDS011;634;48.810;9.148;2022-08-19T13:55:33;34.70;;;23.77;;
1282;SDS011;634;48.810;9.148;2022-08-19T13:58:04;33.57;;;24.53;;
1282;SDS011;634;48.810;9.148;2022-08-19T14:00:34;39.50;;;27.13;;
1282;SDS011;634;48.810;9.148;2022-08-19T14:03:08;37.83;;;24.90;;
1282;SDS011;634;48.810;9.148;2022-08-19T14:05:39;37.43;;;26.60;;
1282;SDS011;634;48.810;9.148;2022-08-19T14:08:10;35.10;;;26.60;;
1282;SDS011;634;48.810;9.148;2022-08-19T14:10:40;35.87;;;26.07;;
1282;SDS011;634;48.810;9.148;2022-08-19T14:13:10;34.17;;;25.83;;
1282;SDS011;634;48.810;9.148;2022-08-19T14:15:43;39.90;;;27.03;;
1282;SDS011;634;48.810;9.148;2022-08-19T14:18:15;34.60;;;25.07;;
1282;SDS011;634;48.810;9.148;2022-08-19T14:20:46;35.90;;;24.70;;
1282;SDS011;634;48.810;9.148;2022-08-19T14:23:15;37.13;;;26.60;;
1282;SDS011;634;48.810;9.148;2022-08-19T14:25:48;39.60;;;28.07;;
1282;SDS011;634;48.810;9.148;2022-08-19T14:28:17;35.23;;;27.63;;
1282;SDS011;634;48.810;9.148;2022-08-19T14:30:48;34.50;;;26.70;;
1282;SDS011;634;48.810;9.148;2022-08-19T14:33:21;34.10;;;26.20;;
1282;SDS011;634;48.810;9.148;2022-08-19T14:35:50;32.27;;;24.77;;
1282;SDS011;634;48.810;9.148;2022-08-19T14:38:20;36.23;;;24.40;;
1282;SDS011;634;48.810;9.148;2022-08-19T14:40:49;36.87;;;24.27;;
1282;SDS011;634;48.810;9.148;2022-08-19T14:43:18;31.90;;;24.40;;
1282;SDS011;634;48.810;9.148;2022-08-19T14:45:48;34.37;;;23.50;;
1282;SDS011;634;48.810;9.148;2022-08-19T14:48:18;28.30;;;21.97;;
1282;SDS011;634;48.810;9.148;2022-08-19T14:50:50;30.90;;;22.43;;
1282;SDS011;634;48.810;9.148;2022-08-19T14:53:19;24.50;;;20.10;;
1282;SDS011;634;48.810;9.148;2022-08-19T14:55:49;26.20;;;19.97;;
1282;SDS011;634;48.810;9.148;2022-08-19T14:58:20;28.43;;;21.13;;
1282;SDS011;634;48.810;9.148;2022-08-19T15:00:50;25.63;;;19.80;;
1282;SDS011;634;48.810;9.148;2022-08-19T15:03:22;28.10;;;21.87;;
1282;SDS011;634;48.810;9.148;2022-08-19T15:05:51;23.90;;;20.07;;
1282;SDS011;634;48.810;9.148;2022-08-19T15:08:22;24.47;;;19.90;;
1282;SDS011;634;48.810;9.148;2022-08-19T15:10:52;25.80;;;19.50;;
1282;SDS011;634;48.810;9.148;2022-08-19T15:13:22;22.33;;;17.60;;
1282;SDS011;634;48.810;9.148;2022-08-19T15:15:52;22.07;;;17.93;;
1282;SDS011;634;48.810;9.148;2022-08-19T15:18:25;23.47;;;18.43;;
1282;SDS011;634;48.810;9.148;2022-08-19T15:20:54;19.80;;;15.03;;
1282;SDS011;634;48.810;9.148;2022-08-19T15:23:27;22.47;;;16.50;;
1282;SDS011;634;48.810;9.148;2022-08-19T15:25:57;23.60;;;16.03;;
1282;SDS011;634;48.810;9.148;2022-08-19T15:28:28;16.30;;;14.70;;
1282;SDS011;634;48.810;9.148;2022-08-19T15:30:58;19.73;;;16.57;;